Time;durP1;ratioP1;P1;durP2;ratioP2;P2;SDS_P1;SDS_P2;PMS_P1;PMS_P2;Temp;Humidity;BMP_temperature;BMP_pressure;BME280_temperature;BME280_humidity;BME280_pressure;Samples;Min_cycle;Max_cycle;Signal;HPM_P1;HPM_P2
2023/01/16 00:01:56;;;;;;;3.50;1.02;;;5.30;99.90;;;;;;5056393;28;25099;-77
2023/01/16 00:04:23;;;;;;;5.30;0.77;;;5.30;99.90;;;;;;5056631;28;25058;-77
2023/01/16 00:06:50;;;;;;;2.65;0.60;;;5.30;99.90;;;;;;5056316;28;25070;-78
2023/01/16 00:09:18;;;;;;;3.65;0.60;;;5.30;99.90;;;;;;5056234;28;25076;-77
2023/01/16 00:11:46;;;;;;;1.48;0.50;;;5.30;99.90;;;;;;5056245;28;25103;-77
2023/01/16 00:14:13;;;;;;;3.58;0.70;;;5.30;99.90;;;;;;5056296;28;25120;-77
2023/01/16 00:16:40;;;;;;;3.83;0.50;;;5.30;99.90;;;;;;5056288;28;25061;-78
2023/01/16 00:19:08;;;;;;;4.18;0.68;;;5.20;99.90;;;;;;5056204;28;25078;-77
2023/01/16 00:21:35;;;;;;;4.55;0.50;;;5.20;99.90;;;;;;5056723;28;25080;-77
2023/01/16 00:24:03;;;;;;;2.83;0.50;;;5.20;99.90;;;;;;5056568;28;25057;-77
2023/01/16 00:26:31;;;;;;;2.28;0.90;;;5.10;99.90;;;;;;5056139;28;25104;-77
2023/01/16 00:28:59;;;;;;;2.78;0.73;;;5.10;99.90;;;;;;5056134;28;25047;-77
2023/01/16 00:31:27;;;;;;;3.55;0.63;;;5.00;99.90;;;;;;5056115;28;25083;-77
2023/01/16 00:33:55;;;;;;;6.10;1.23;;;4.90;99.90;;;;;;5056447;28;25067;-77
2023/01/16 00:36:22;;;;;;;7.07;2.00;;;4.80;99.90;;;;;;5055943;28;25053;-77
2023/01/16 00:38:50;;;;;;;3.30;1.60;;;4.70;99.90;;;;;;5056123;28;25051;-77
2023/01/16 00:41:17;;;;;;;3.53;0.73;;;4.60;99.90;;;;;;5056015;28;25080;-77
2023/01/16 00:43:45;;;;;;;3.22;0.63;;;4.50;99.90;;;;;;5056166;28;25066;-77
2023/01/16 00:46:13;;;;;;;0.95;0.50;;;4.50;99.90;;;;;;5055960;28;25065;-77
2023/01/16 00:48:40;;;;;;;3.67;2.70;;;4.50;99.90;;;;;;5056240;28;25135;-77
2023/01/16 00:51:07;;;;;;;4.68;0.50;;;4.40;99.90;;;;;;5055906;28;25078;-77
2023/01/16 00:53:35;;;;;;;5.22;1.23;;;4.40;99.90;;;;;;5056067;28;25130;-77
2023/01/16 00:56:02;;;;;;;6.43;0.70;;;4.40;99.90;;;;;;5055793;28;25069;-77
2023/01/16 00:58:29;;;;;;;4.70;0.57;;;4.30;99.90;;;;;;5056432;28;25127;-77
2023/01/16 01:00:57;;;;;;;2.38;0.73;;;4.30;99.90;;;;;;5059218;28;25103;-77
2023/01/16 01:03:27;;;;;;;2.92;0.77;;;4.20;99.90;;;;;;5042190;28;25118;-77
2023/01/16 01:05:54;;;;;;;3.20;0.80;;;4.20;99.90;;;;;;5041876;28;25093;-77
2023/01/16 01:08:22;;;;;;;2.90;1.08;;;4.10;99.90;;;;;;5059552;28;25061;-77
2023/01/16 01:10:49;;;;;;;1.90;0.80;;;4.10;99.90;;;;;;5042366;28;25065;-77
2023/01/16 01:13:17;;;;;;;4.35;0.85;;;4.10;99.90;;;;;;5059861;28;25079;-77
2023/01/16 01:15:44;;;;;;;3.55;0.50;;;4.00;99.90;;;;;;5059697;28;25148;-77
2023/01/16 01:18:11;;;;;;;4.60;0.65;;;3.90;99.90;;;;;;5041613;28;25106;-77
2023/01/16 01:20:39;;;;;;;1.17;0.32;;;3.80;99.90;;;;;;5059365;28;25096;-77
2023/01/16 01:23:06;;;;;;;2.55;0.60;;;3.70;99.90;;;;;;5059403;28;25127;-77
2023/01/16 01:25:33;;;;;;;2.00;0.70;;;3.70;99.90;;;;;;5059496;28;25064;-77
2023/01/16 01:28:01;;;;;;;6.75;0.90;;;3.60;99.90;;;;;;5059445;28;25072;-77
2023/01/16 01:30:28;;;;;;;3.95;0.65;;;3.60;99.90;;;;;;5059305;28;25059;-77
2023/01/16 01:32:55;;;;;;;5.05;1.08;;;3.60;99.90;;;;;;5059635;28;25073;-77
2023/01/16 01:35:23;;;;;;;3.63;0.90;;;3.60;99.90;;;;;;5059034;28;25103;-77
2023/01/16 01:37:50;;;;;;;1.23;0.60;;;3.70;99.90;;;;;;5059087;28;25087;-77
2023/01/16 01:40:17;;;;;;;2.17;0.52;;;3.70;99.90;;;;;;5059381;28;25058;-77
2023/01/16 01:42:51;;;;;;;12.73;1.77;;;3.70;99.90;;;;;;5059203;28;25065;-77
2023/01/16 01:45:30;;;;;;;2.03;0.47;;;3.70;99.90;;;;;;5059152;28;25058;-77
2023/01/16 01:48:12;;;;;;;3.17;0.93;;;3.80;99.90;;;;;;5041107;28;25073;-77
2023/01/16 01:50:54;;;;;;;3.28;0.50;;;3.80;99.90;;;;;;5058841;28;25089;-77
2023/01/16 01:53:30;;;;;;;1.60;0.57;;;3.80;99.90;;;;;;5059256;28;25076;-77
2023/01/16 01:56:06;;;;;;;4.20;0.40;;;3.80;99.90;;;;;;5058934;28;25077;-77
2023/01/16 01:58:34;;;;;;;1.63;0.63;;;3.80;99.90;;;;;;5041098;28;25075;-77
2023/01/16 02:01:03;;;;;;;2.65;0.43;;;3.80;99.90;;;;;;5058526;28;25099;-77
2023/01/16 02:03:42;;;;;;;4.25;0.63;;;3.80;99.90;;;;;;5058565;28;25057;-77
2023/01/16 02:06:21;;;;;;;4.65;1.27;;;3.90;99.90;;;;;;5059008;28;25059;-77
2023/01/16 02:08:52;;;;;;;3.90;0.50;;;3.90;99.90;;;;;;5058809;28;25070;-77
2023/01/16 02:11:32;;;;;;;3.90;0.70;;;3.90;99.90;;;;;;5058301;28;25071;-77
2023/01/16 02:14:13;;;;;;;3.35;0.70;;;3.90;99.90;;;;;;5058298;28;25412;-77
2023/01/16 02:19:52;;;;;;;2.67;0.50;;;4.00;99.90;;;;;;5058730;28;25120;-77
2023/01/16 02:22:52;;;;;;;2.25;0.40;;;3.90;99.90;;;;;;5042282;28;25080;-77
2023/01/16 02:25:52;;;;;;;7.40;0.68;;;3.80;99.90;;;;;;5021798;28;25099;-77
2023/01/16 02:28:58;;;;;;;2.83;1.10;;;3.80;99.90;;;;;;5058522;28;25072;-77
2023/01/16 02:31:36;;;;;;;1.45;0.40;;;3.70;99.90;;;;;;5040554;28;25126;-77
2023/01/16 02:34:10;;;;;;;2.95;0.88;;;3.70;99.90;;;;;;5058115;28;25123;-78
2023/01/16 02:36:37;;;;;;;1.52;0.47;;;3.60;99.90;;;;;;5058105;28;25073;-77
2023/01/16 02:39:22;;;;;;;1.42;0.50;;;3.60;99.90;;;;;;5058318;28;25054;-77
2023/01/16 02:42:05;;;;;;;1.85;0.82;;;3.60;99.90;;;;;;5058072;28;25070;-77
2023/01/16 02:44:59;;;;;;;3.75;0.47;;;3.60;99.90;;;;;;5040126;28;25114;-78
2023/01/16 02:47:56;;;;;;;5.55;0.80;;;3.60;99.90;;;;;;5055657;28;25072;-77
2023/01/16 02:50:32;;;;;;;;;;;3.60;99.90;;;;;;5058224;28;25155;-77
2023/01/16 02:53:11;;;;;;;1.52;0.80;;;3.60;99.90;;;;;;5057567;28;24109;-77
2023/01/16 02:55:54;;;;;;;3.40;0.80;;;3.60;99.90;;;;;;5058047;28;25084;-77
2023/01/16 02:58:24;;;;;;;3.42;0.60;;;3.60;99.90;;;;;;5057830;28;25058;-78
2023/01/16 03:00:55;;;;;;;5.15;0.90;;;3.60;99.90;;;;;;5057684;28;25070;-77
2023/01/16 03:03:49;;;;;;;0.98;0.38;;;3.60;99.90;;;;;;5057691;28;25122;-78
2023/01/16 03:06:16;;;;;;;0.95;0.45;;;3.60;99.90;;;;;;5039468;28;25082;-78
2023/01/16 03:08:55;;;;;;;1.55;0.55;;;3.50;99.90;;;;;;5057643;28;25073;-77
2023/01/16 03:11:26;;;;;;;2.63;0.47;;;3.50;99.90;;;;;;5057496;28;25120;-77
2023/01/16 03:14:36;;;;;;;2.00;0.45;;;3.40;99.90;;;;;;5057242;28;25070;-77
2023/01/16 03:17:23;;;;;;;1.15;0.30;;;3.40;99.90;;;;;;5041436;28;25151;-77
2023/01/16 03:20:04;;;;;;;2.17;0.52;;;3.30;99.90;;;;;;5057821;28;25073;-77
2023/01/16 03:22:41;;;;;;;1.17;0.38;;;3.20;99.90;;;;;;5056775;28;25082;-78
2023/01/16 03:25:43;;;;;;;1.58;0.43;;;3.20;99.90;;;;;;5057284;28;25076;-77
2023/01/16 03:28:31;;;;;;;1.05;0.47;;;3.20;99.90;;;;;;5056951;28;25075;-77
2023/01/16 03:31:20;;;;;;;2.08;0.60;;;3.20;99.90;;;;;;5057161;28;25071;-77
2023/01/16 03:34:08;;;;;;;1.08;0.63;;;3.20;99.90;;;;;;5057112;28;25106;-77
2023/01/16 03:36:59;;;;;;;0.98;0.50;;;3.30;99.90;;;;;;5076444;28;25084;-77
2023/01/16 03:39:34;;;;;;;2.38;0.43;;;3.30;99.90;;;;;;5075775;28;25106;-77
2023/01/16 03:42:07;;;;;;;1.98;0.50;;;3.30;99.90;;;;;;5075929;28;25050;-77
2023/01/16 03:44:49;;;;;;;2.45;0.85;;;3.40;99.90;;;;;;5076346;28;25108;-77
2023/01/16 03:47:24;;;;;;;0.95;0.50;;;3.40;99.90;;;;;;5075797;28;25075;-77
2023/01/16 03:49:59;;;;;;;3.35;0.47;;;3.40;99.90;;;;;;5076149;28;25104;-78
2023/01/16 03:52:36;;;;;;;1.30;0.50;;;3.40;99.90;;;;;;5075739;28;25071;-77
2023/01/16 03:55:19;;;;;;;1.90;0.40;;;3.40;99.90;;;;;;5076180;28;25093;-78
2023/01/16 03:57:54;;;;;;;4.50;0.70;;;3.40;99.90;;;;;;5075944;28;25061;-77
2023/01/16 04:00:25;;;;;;;3.65;0.60;;;3.40;99.90;;;;;;5075938;28;25112;-78
2023/01/16 04:02:57;;;;;;;2.03;0.60;;;3.30;99.90;;;;;;5058084;28;25121;-77
2023/01/16 04:05:36;;;;;;;3.92;0.80;;;3.20;99.90;;;;;;5075862;28;25082;-77
2023/01/16 04:08:29;;;;;;;2.08;0.90;;;3.20;99.90;;;;;;5075537;28;25103;-77
2023/01/16 04:10:57;;;;;;;2.40;0.57;;;3.20;99.90;;;;;;5075549;28;25065;-77
2023/01/16 04:13:39;;;;;;;2.60;0.93;;;3.20;99.90;;;;;;5075948;28;25066;-77
2023/01/16 04:16:14;;;;;;;2.65;0.60;;;3.30;99.90;;;;;;5075394;28;25061;-77
2023/01/16 04:18:43;;;;;;;5.05;0.65;;;3.30;99.90;;;;;;5075758;28;25073;-77
2023/01/16 04:21:10;;;;;;;2.25;0.65;;;3.40;99.90;;;;;;5075227;28;25124;-77
2023/01/16 04:23:38;;;;;;;2.50;0.60;;;3.40;99.90;;;;;;5075719;28;25107;-77
2023/01/16 04:26:06;;;;;;;2.75;0.88;;;3.50;99.90;;;;;;5075344;28;25055;-77
2023/01/16 04:28:33;;;;;;;4.28;0.80;;;3.50;99.90;;;;;;5075613;28;25066;-77
2023/01/16 04:31:00;;;;;;;4.93;0.90;;;3.50;99.90;;;;;;5057502;28;25132;-77
2023/01/16 04:33:28;;;;;;;1.92;0.73;;;3.50;99.90;;;;;;5057626;28;25117;-77
2023/01/16 04:35:55;;;;;;;1.60;0.73;;;3.50;99.90;;;;;;4967419;28;2695780;-77
2023/01/16 04:38:22;;;;;;;1.17;0.55;;;3.50;99.90;;;;;;5060346;28;25072;-77
2023/01/16 04:40:53;;;;;;;5.38;0.63;;;3.50;99.90;;;;;;5060108;28;25054;-77
2023/01/16 04:43:21;;;;;;;4.85;0.80;;;3.50;99.90;;;;;;5060212;28;25126;-77
2023/01/16 04:45:48;;;;;;;3.78;0.60;;;3.50;99.90;;;;;;5042300;28;25103;-77
2023/01/16 04:48:16;;;;;;;4.72;0.85;;;3.50;99.90;;;;;;5060193;28;25068;-77
2023/01/16 04:50:43;;;;;;;2.88;0.50;;;3.50;99.90;;;;;;5042214;28;25094;-77
2023/01/16 04:53:10;;;;;;;1.80;0.60;;;3.50;99.90;;;;;;5042114;28;25069;-77
2023/01/16 04:55:37;;;;;;;0.90;0.52;;;3.50;99.90;;;;;;5060399;28;25094;-77
2023/01/16 04:58:04;;;;;;;2.40;0.75;;;3.60;99.90;;;;;;5059946;28;25064;-77
2023/01/16 05:00:31;;;;;;;4.38;0.73;;;3.60;99.90;;;;;;5060026;28;25055;-78
2023/01/16 05:02:59;;;;;;;1.25;0.35;;;3.60;99.90;;;;;;5059914;28;25074;-77
2023/01/16 05:05:27;;;;;;;4.78;1.15;;;3.70;99.90;;;;;;5059655;28;25078;-77
2023/01/16 05:10:39;;;;;;;0.77;0.30;;;3.70;99.90;;;;;;5059586;28;25058;-77
2023/01/16 05:13:07;;;;;;;0.77;0.40;;;3.70;99.90;;;;;;5041849;28;25052;-77
2023/01/16 05:15:34;;;;;;;2.58;0.93;;;3.70;99.90;;;;;;5059990;28;25117;-77
2023/01/16 05:18:02;;;;;;;15.75;3.28;;;3.70;99.90;;;;;;5059501;28;24948;-77
2023/01/16 05:20:28;;;;;;;5.70;1.95;;;3.70;99.90;;;;;;5059644;28;25087;-77
2023/01/16 05:22:56;;;;;;;4.07;1.52;;;3.70;99.90;;;;;;5059371;28;25122;-77
2023/01/16 05:25:24;;;;;;;1.85;0.73;;;3.70;99.90;;;;;;5059311;28;25055;-77
2023/01/16 05:27:51;;;;;;;2.35;0.82;;;3.70;99.90;;;;;;5059433;28;25093;-77
2023/01/16 05:30:19;;;;;;;0.80;0.30;;;3.60;99.90;;;;;;5041441;28;25055;-77
2023/01/16 05:32:46;;;;;;;3.25;1.30;;;3.60;99.90;;;;;;5059675;28;25047;-77
2023/01/16 05:35:15;;;;;;;2.08;0.88;;;3.60;99.90;;;;;;5059029;28;25087;-77
2023/01/16 05:37:43;;;;;;;1.50;0.82;;;3.50;99.90;;;;;;5058913;28;25074;-77
2023/01/16 05:40:12;;;;;;;2.30;1.27;;;3.50;99.90;;;;;;5059207;28;25076;-77
2023/01/16 05:42:43;;;;;;;3.88;1.10;;;3.50;99.90;;;;;;5041262;28;25113;-77
2023/01/16 05:45:11;;;;;;;2.28;0.85;;;3.50;99.90;;;;;;5040856;28;25126;-77
2023/01/16 05:47:38;;;;;;;4.65;1.58;;;3.40;99.90;;;;;;5041253;28;25107;-77
2023/01/16 05:50:06;;;;;;;9.18;2.67;;;3.40;99.90;;;;;;5058988;28;25064;-78
2023/01/16 05:52:33;;;;;;;1.70;0.70;;;3.40;99.90;;;;;;5058560;28;25083;-77
2023/01/16 05:55:01;;;;;;;7.40;2.25;;;3.40;99.90;;;;;;5058997;28;25102;-77
2023/01/16 05:57:29;;;;;;;4.70;1.55;;;3.40;99.90;;;;;;5058846;28;25078;-77
2023/01/16 05:59:57;;;;;;;6.47;2.55;;;3.40;99.90;;;;;;5058755;28;25068;-77
2023/01/16 06:02:24;;;;;;;10.95;2.80;;;3.30;99.90;;;;;;5058838;28;25060;-77
2023/01/16 06:04:51;;;;;;;3.55;1.25;;;3.40;99.90;;;;;;5058570;28;25089;-77
2023/01/16 06:07:19;;;;;;;4.05;1.90;;;3.40;99.90;;;;;;5058335;28;25075;-77
2023/01/16 06:09:46;;;;;;;4.55;1.00;;;3.40;99.90;;;;;;5059039;28;25125;-77
2023/01/16 06:12:18;;;;;;;2.65;1.27;;;3.40;99.90;;;;;;5058715;28;25075;-77
2023/01/16 06:14:46;;;;;;;4.63;1.10;;;3.40;99.90;;;;;;5040958;28;25105;-77
2023/01/16 06:17:14;;;;;;;2.63;0.88;;;3.40;99.90;;;;;;5058254;28;25099;-77
2023/01/16 06:19:43;;;;;;;2.58;1.00;;;3.30;99.90;;;;;;5058317;28;25070;-77
2023/01/16 06:22:12;;;;;;;3.03;0.73;;;3.40;99.90;;;;;;5058457;28;25080;-77
2023/01/16 06:24:39;;;;;;;5.68;1.27;;;3.40;99.90;;;;;;5058304;28;25057;-77
2023/01/16 06:27:07;;;;;;;3.22;0.90;;;3.40;99.90;;;;;;5058358;28;25095;-77
2023/01/16 06:29:38;;;;;;;2.00;0.60;;;3.40;99.90;;;;;;5058117;28;25059;-77
2023/01/16 06:32:06;;;;;;;0.95;0.50;;;3.40;99.90;;;;;;5058030;28;25139;-77
2023/01/16 06:34:33;;;;;;;4.65;1.05;;;3.40;99.90;;;;;;5048477;28;25066;-77
2023/01/16 06:37:00;;;;;;;4.88;0.98;;;3.40;99.90;;;;;;5078163;28;25075;-77
2023/01/16 06:39:28;;;;;;;2.67;0.70;;;3.40;99.90;;;;;;5076797;28;25080;-77
2023/01/16 06:41:55;;;;;;;3.78;1.20;;;3.30;99.90;;;;;;5077856;28;25073;-77
2023/01/16 06:44:22;;;;;;;2.53;0.55;;;3.30;99.90;;;;;;5078209;28;25054;-77
2023/01/16 06:46:49;;;;;;;2.03;0.80;;;3.30;99.90;;;;;;5076640;28;25111;-78
2023/01/16 06:49:17;;;;;;;2.47;1.20;;;3.20;99.90;;;;;;5078275;28;25081;-76
2023/01/16 06:51:44;;;;;;;8.20;1.00;;;3.20;99.90;;;;;;5076539;28;25062;-76
2023/01/16 06:54:12;;;;;;;5.05;1.45;;;3.20;99.90;;;;;;5076638;28;25126;-75
2023/01/16 06:56:39;;;;;;;6.72;1.17;;;3.20;99.90;;;;;;5077779;28;25114;-75
2023/01/16 06:59:06;;;;;;;2.60;0.80;;;3.20;99.90;;;;;;5076994;28;25060;-79
2023/01/16 07:01:34;;;;;;;2.50;0.70;;;3.20;99.90;;;;;;5077509;28;25089;-78
2023/01/16 07:04:01;;;;;;;1.98;0.90;;;3.20;99.90;;;;;;5076537;28;25085;-77
2023/01/16 07:06:28;;;;;;;3.15;1.13;;;3.20;99.90;;;;;;5077588;28;25092;-76
2023/01/16 07:08:55;;;;;;;4.05;1.10;;;3.20;99.90;;;;;;5077270;28;25107;-75
2023/01/16 07:11:23;;;;;;;3.47;0.82;;;3.20;99.90;;;;;;5077252;28;25098;-76
2023/01/16 07:22:34;;;;;;;5.10;1.13;;;3.20;99.90;;;;;;5077338;28;25057;-85
2023/01/16 07:24:59;;;;;;;5.20;0.77;;;3.20;99.90;;;;;;5076974;28;25075;-84
2023/01/16 07:27:26;;;;;;;4.45;0.73;;;3.10;99.90;;;;;;5076186;28;25086;-82
2023/01/16 07:29:54;;;;;;;2.60;1.05;;;3.10;99.90;;;;;;5075879;28;25065;-82
2023/01/16 07:32:32;;;;;;;1.38;0.70;;;3.10;99.90;;;;;;5077144;28;25102;-80
2023/01/16 07:34:59;;;;;;;3.55;0.90;;;3.10;99.90;;;;;;5075681;28;25130;-80
2023/01/16 07:37:26;;;;;;;4.30;1.13;;;3.10;99.90;;;;;;5076877;28;25089;-81
2023/01/16 07:39:54;;;;;;;6.40;1.15;;;3.10;99.90;;;;;;5076208;28;25156;-80
2023/01/16 07:42:21;;;;;;;3.10;0.90;;;3.10;99.90;;;;;;5075627;28;25059;-71
2023/01/16 07:44:49;;;;;;;4.53;1.10;;;3.20;99.90;;;;;;5075760;28;25110;-74
2023/01/16 07:47:16;;;;;;;6.93;0.93;;;3.20;99.90;;;;;;5076917;28;25120;-72
2023/01/16 07:49:44;;;;;;;4.45;1.25;;;3.20;99.90;;;;;;5076228;28;25068;-68
2023/01/16 07:52:11;;;;;;;1.98;0.85;;;3.20;99.90;;;;;;5075495;28;25043;-73
2023/01/16 07:54:41;;;;;;;5.75;1.35;;;3.20;99.90;;;;;;5075543;28;25103;-75
2023/01/16 07:57:09;;;;;;;5.20;1.70;;;3.30;99.90;;;;;;5076310;28;25059;-73
2023/01/16 07:59:36;;;;;;;3.20;1.00;;;3.40;99.90;;;;;;5076528;28;25145;-73
2023/01/16 08:02:03;;;;;;;3.50;0.82;;;3.40;99.90;;;;;;5075311;28;25056;-73
2023/01/16 08:04:31;;;;;;;5.53;0.93;;;3.50;99.90;;;;;;5077161;28;25068;-73
2023/01/16 08:06:58;;;;;;;3.60;1.45;;;3.60;99.90;;;;;;5076745;28;25135;-73
2023/01/16 08:09:26;;;;;;;5.43;1.90;;;3.70;99.90;;;;;;5076242;28;25070;-73
2023/01/16 08:11:53;;;;;;;4.03;1.40;;;3.80;99.90;;;;;;5076928;28;25058;-73
2023/01/16 08:14:20;;;;;;;4.03;0.90;;;3.90;99.90;;;;;;5077017;28;25078;-73
2023/01/16 08:16:47;;;;;;;3.50;0.85;;;3.90;99.90;;;;;;5076238;28;25115;-73
2023/01/16 08:19:15;;;;;;;3.67;1.02;;;4.10;99.90;;;;;;5075260;28;25104;-73
2023/01/16 08:21:42;;;;;;;2.25;1.08;;;4.10;99.90;;;;;;5076281;28;25071;-73
2023/01/16 08:24:12;;;;;;;2.97;0.90;;;4.20;99.90;;;;;;5076215;28;25122;-73
2023/01/16 08:26:40;;;;;;;3.80;1.20;;;4.30;99.90;;;;;;5076070;28;25073;-73
2023/01/16 08:29:08;;;;;;;5.03;1.02;;;4.30;99.90;;;;;;5075140;28;25112;-73
2023/01/16 08:31:37;;;;;;;5.97;1.38;;;4.40;99.90;;;;;;5076764;28;25106;-73
2023/01/16 08:34:05;;;;;;;4.22;0.90;;;4.40;99.90;;;;;;5074829;28;25087;-73
2023/01/16 08:36:32;;;;;;;3.67;0.82;;;4.50;99.90;;;;;;5055967;28;25059;-73
2023/01/16 08:39:00;;;;;;;2.20;0.63;;;4.50;99.90;;;;;;5056613;28;25090;-73
2023/01/16 08:52:44;;;;;;;4.60;0.60;;;4.60;99.90;;;;;;5055929;28;25077;-73
2023/01/16 08:55:11;;;;;;;1.52;0.50;;;4.60;99.90;;;;;;5038239;28;25116;-73
2023/01/16 08:57:39;;;;;;;3.40;1.00;;;4.60;99.90;;;;;;5056560;28;25062;-73
2023/01/16 09:00:08;;;;;;;2.25;0.55;;;4.70;99.90;;;;;;5038640;28;25086;-73
2023/01/16 09:02:38;;;;;;;1.83;0.80;;;4.80;99.90;;;;;;5056403;28;25109;-73
2023/01/16 09:05:06;;;;;;;1.77;0.50;;;4.80;99.90;;;;;;5055770;28;25113;-73
2023/01/16 09:07:33;;;;;;;4.95;1.23;;;4.80;99.90;;;;;;5056269;28;25062;-73
2023/01/16 09:10:01;;;;;;;1.27;0.45;;;4.90;99.90;;;;;;5056272;28;25135;-73
2023/01/16 09:15:14;;;;;;;1.63;0.52;;;5.00;99.90;;;;;;5056089;28;25061;-73
2023/01/16 09:17:41;;;;;;;1.67;0.85;;;5.00;99.90;;;;;;5056174;28;25112;-73
2023/01/16 09:20:10;;;;;;;6.95;0.73;;;5.10;99.90;;;;;;5056389;28;25059;-73
2023/01/16 09:22:37;;;;;;;2.03;0.70;;;5.10;99.90;;;;;;5059252;28;25114;-73
2023/01/16 09:25:05;;;;;;;2.97;0.85;;;5.10;99.90;;;;;;5041661;28;25134;-73
2023/01/16 09:27:32;;;;;;;2.75;0.95;;;5.10;99.90;;;;;;5041552;28;25063;-73
2023/01/16 09:30:00;;;;;;;2.97;0.75;;;5.10;99.90;;;;;;5060183;28;20025;-73
2023/01/16 09:32:39;;;;;;;3.45;1.02;;;5.20;99.90;;;;;;5059170;28;25057;-73
2023/01/16 09:35:08;;;;;;;2.80;0.45;;;5.20;99.90;;;;;;5059132;28;25066;-73
2023/01/16 09:37:36;;;;;;;2.17;0.55;;;5.20;99.90;;;;;;5058967;28;25046;-73
2023/01/16 09:40:04;;;;;;;3.22;0.80;;;5.30;99.90;;;;;;5059085;28;25125;-73
2023/01/16 09:45:52;;;;;;;5.25;0.60;;;5.30;99.90;;;;;;5059005;28;25072;-73
2023/01/16 09:48:32;;;;;;;3.35;0.50;;;5.30;99.90;;;;;;5058910;28;25075;-73
2023/01/16 09:51:13;;;;;;;4.07;0.82;;;5.30;99.90;;;;;;5041166;28;25071;-73
2023/01/16 09:59:38;;;;;;;3.97;0.65;;;5.30;99.90;;;;;;5059283;28;25071;-73
2023/01/16 10:02:22;;;;;;;7.20;0.82;;;5.40;99.90;;;;;;5059183;28;25083;-73
2023/01/16 10:04:50;;;;;;;3.25;1.08;;;5.40;99.90;;;;;;5059733;28;25128;-73
2023/01/16 10:07:39;;;;;;;4.32;0.90;;;5.40;99.90;;;;;;5059285;28;25121;-73
2023/01/16 10:10:30;;;;;;;2.45;0.70;;;5.40;99.90;;;;;;5059040;28;25111;-73
2023/01/16 10:13:17;;;;;;;2.88;0.40;;;5.40;99.90;;;;;;5058625;28;25068;-73
2023/01/16 10:15:49;;;;;;;;;;;5.40;99.90;;;;;;5059398;28;25050;-73
2023/01/16 10:18:50;;;;;;;1.75;0.63;;;5.30;99.90;;;;;;5058627;28;24066;-73
2023/01/16 10:21:37;;;;;;;0.82;0.50;;;5.40;99.90;;;;;;5040490;28;25079;-73
2023/01/16 10:24:22;;;;;;;3.80;0.90;;;5.40;99.90;;;;;;5058431;28;25094;-72
2023/01/16 10:27:06;;;;;;;2.70;0.47;;;5.40;99.90;;;;;;5058703;28;25135;-73
2023/01/16 10:30:03;;;;;;;2.72;0.43;;;5.40;99.90;;;;;;5058135;28;25055;-72
2023/01/16 10:32:44;;;;;;;1.75;0.75;;;5.40;99.90;;;;;;5057041;28;25063;-75
2023/01/16 10:35:31;;;;;;;4.55;0.63;;;5.50;99.90;;;;;;5058080;28;25100;-74
2023/01/16 10:38:16;;;;;;;5.32;0.77;;;5.50;99.90;;;;;;5057693;28;25078;-73
2023/01/16 10:40:47;;;;;;;2.03;0.60;;;5.50;99.90;;;;;;5058382;28;25075;-73
2023/01/16 10:49:29;;;;;;;3.83;0.60;;;5.60;99.90;;;;;;5058063;28;25052;-73
2023/01/16 10:51:59;;;;;;;1.65;0.57;;;5.60;99.90;;;;;;5039943;28;25094;-72
2023/01/16 10:54:26;;;;;;;5.28;0.70;;;5.60;99.90;;;;;;5057827;28;25088;-72
2023/01/16 10:56:53;;;;;;;3.33;0.57;;;5.70;99.90;;;;;;5057502;28;25171;-73
2023/01/16 10:59:22;;;;;;;1.05;0.32;;;5.70;99.90;;;;;;5057985;28;25066;-73
2023/01/16 11:01:52;;;;;;;4.60;0.70;;;5.70;99.90;;;;;;5057857;28;25136;-72
2023/01/16 11:04:20;;;;;;;1.67;0.47;;;5.80;99.90;;;;;;5039894;28;25139;-72
2023/01/16 11:06:48;;;;;;;1.85;0.47;;;5.80;99.90;;;;;;5057384;28;25081;-73
2023/01/16 11:09:19;;;;;;;2.05;0.50;;;5.80;99.90;;;;;;5057139;28;25069;-73
2023/01/16 11:20:35;;;;;;;2.92;0.40;;;6.00;99.90;;;;;;5057932;28;25056;-73
2023/01/16 11:23:24;;;;;;;5.28;0.60;;;6.10;99.90;;;;;;5057394;28;25129;-73
2023/01/16 11:25:58;;;;;;;1.02;0.30;;;6.20;99.90;;;;;;5057054;28;25120;-72
2023/01/16 11:28:31;;;;;;;6.15;0.55;;;6.30;99.90;;;;;;5057430;28;25072;-72
2023/01/16 11:31:12;;;;;;;5.05;0.45;;;6.40;99.90;;;;;;5039232;28;25068;-74
2023/01/16 11:34:00;;;;;;;1.60;0.38;;;6.50;99.90;;;;;;5056929;28;25059;-79
2023/01/16 11:36:34;;;;;;;3.08;0.57;;;6.60;99.90;;;;;;5057534;28;25080;-76
2023/01/16 11:39:03;;;;;;;2.63;0.70;;;6.70;99.90;;;;;;5056999;28;25061;-75
2023/01/16 11:41:36;;;;;;;3.90;0.75;;;6.70;99.90;;;;;;5057888;28;25115;-74
2023/01/16 11:47:11;;;;;;;4.07;0.65;;;6.80;99.90;;;;;;5056673;28;25061;-73
2023/01/16 11:49:47;;;;;;;0.40;0.20;;;6.90;99.90;;;;;;5056793;28;25102;-73
2023/01/16 11:52:30;;;;;;;1.52;0.38;;;6.80;99.90;;;;;;5055442;28;25082;-73
2023/01/16 11:55:02;;;;;;;3.45;0.77;;;6.80;99.90;;;;;;5055488;28;25068;-73
2023/01/16 11:57:57;;;;;;;1.63;0.50;;;6.80;99.90;;;;;;5055541;28;25071;-73
2023/01/16 12:00:49;;;;;;;2.63;0.90;;;6.80;99.90;;;;;;5057018;28;25053;-73
2023/01/16 12:03:36;;;;;;;1.38;0.38;;;6.80;99.90;;;;;;5056743;28;25072;-73
2023/01/16 12:06:40;;;;;;;1.30;0.35;;;6.80;99.90;;;;;;5056761;28;25143;-73
2023/01/16 12:09:25;;;;;;;1.92;0.60;;;6.80;99.90;;;;;;5056370;28;25160;-72
2023/01/16 12:11:59;;;;;;;1.10;0.30;;;6.80;99.90;;;;;;5056946;28;25111;-73
2023/01/16 12:14:55;;;;;;;3.90;0.70;;;6.80;99.90;;;;;;5056048;28;25078;-73
2023/01/16 12:18:04;;;;;;;2.40;0.30;;;6.90;99.90;;;;;;5056139;28;25060;-73
2023/01/16 12:21:00;;;;;;;1.80;0.70;;;6.80;99.90;;;;;;5055217;28;25152;-73
2023/01/16 12:24:04;;;;;;;2.00;0.63;;;6.80;99.90;;;;;;5055100;28;25107;-73
2023/01/16 12:26:52;;;;;;;0.70;0.32;;;6.80;99.90;;;;;;5054874;28;25065;-73
2023/01/16 12:30:18;;;;;;;1.25;0.40;;;6.70;99.90;;;;;;5056908;28;25071;-73
2023/01/16 12:33:39;;;;;;;1.40;0.45;;;6.70;99.90;;;;;;4995137;28;25126;-73
2023/01/16 12:36:28;;;;;;;1.35;0.45;;;6.60;99.90;;;;;;5050931;28;25112;-74
2023/01/16 12:39:43;;;;;;;3.38;0.73;;;6.50;99.90;;;;;;5076468;28;25100;-73
2023/01/16 12:45:50;;;;;;;1.55;0.52;;;6.40;99.90;;;;;;5076352;28;25119;-73
2023/01/16 12:48:36;;;;;;;3.42;0.93;;;6.40;99.90;;;;;;5076733;28;25110;-73
2023/01/16 12:51:34;;;;;;;5.45;0.70;;;6.30;99.90;;;;;;5076553;28;25109;-73
2023/01/16 12:54:38;;;;;;;1.48;0.40;;;6.20;99.90;;;;;;5076131;28;25074;-73
2023/01/16 12:57:38;;;;;;;3.95;0.90;;;6.10;99.90;;;;;;5079489;28;25065;-71
2023/01/16 13:00:16;;;;;;;3.72;1.15;;;6.00;99.90;;;;;;5080103;28;25141;-70
2023/01/16 13:03:00;;;;;;;2.70;0.40;;;5.90;99.90;;;;;;5079834;28;25077;-71
2023/01/16 13:05:35;;;;;;;2.65;0.80;;;5.80;99.90;;;;;;5080310;28;25046;-73
2023/01/16 13:08:34;;;;;;;2.63;0.50;;;5.70;99.90;;;;;;5080056;28;25106;-70
2023/01/16 13:14:12;;;;;;;1.90;0.50;;;5.50;99.90;;;;;;5079842;28;25160;-73
2023/01/16 13:17:12;;;;;;;2.95;0.40;;;5.50;99.90;;;;;;5079980;28;25116;-72
2023/01/16 13:19:41;;;;;;;0.65;0.28;;;5.40;99.90;;;;;;5078519;28;25085;-72
2023/01/16 13:22:26;;;;;;;2.58;0.50;;;5.40;99.90;;;;;;5079922;28;25135;-72
2023/01/16 13:25:19;;;;;;;3.67;0.43;;;5.30;99.90;;;;;;5079383;28;25164;-73
2023/01/16 13:28:01;;;;;;;1.52;0.55;;;5.30;99.90;;;;;;5078409;28;25065;-74
2023/01/16 13:30:28;;;;;;;1.98;0.30;;;5.30;99.90;;;;;;5079292;28;25110;-75
2023/01/16 13:33:01;;;;;;;3.00;0.40;;;5.30;99.90;;;;;;5079296;28;25109;-71
2023/01/16 13:35:56;;;;;;;0.68;0.28;;;5.20;99.90;;;;;;5066506;28;25134;-72
2023/01/16 13:38:51;;;;;;;2.20;0.65;;;5.20;99.90;;;;;;5059463;28;25074;-77
2023/01/16 13:41:31;;;;;;;3.38;0.50;;;5.20;99.90;;;;;;5027454;28;25159;-72
2023/01/16 13:47:11;;;;;;;0.50;0.40;;;5.20;99.90;;;;;;5059476;28;25091;-71
2023/01/16 13:49:39;;;;;;;2.30;0.40;;;5.20;99.90;;;;;;5059526;28;25073;-71
2023/01/16 13:52:25;;;;;;;0.93;0.30;;;5.20;99.90;;;;;;5058757;28;25069;-72
2023/01/16 13:54:57;;;;;;;2.33;0.50;;;5.20;99.90;;;;;;5041609;28;25070;-73
2023/01/16 13:57:27;;;;;;;1.15;0.30;;;5.20;99.90;;;;;;5058648;28;25067;-72
2023/01/16 14:00:01;;;;;;;6.68;0.70;;;5.20;99.90;;;;;;5058590;28;25094;-72
2023/01/16 14:02:42;;;;;;;0.98;0.35;;;5.20;99.90;;;;;;5057829;28;25070;-73
2023/01/16 14:05:27;;;;;;;1.08;0.45;;;5.30;99.90;;;;;;5058888;28;25070;-75
2023/01/16 14:10:46;;;;;;;2.15;1.02;;;5.30;99.90;;;;;;5058500;28;25125;-74
2023/01/16 14:13:28;;;;;;;1.27;0.60;;;5.30;99.90;;;;;;5058822;28;25063;-75
2023/01/16 14:18:55;;;;;;;4.00;0.68;;;5.40;99.90;;;;;;5058732;28;25104;-74
2023/01/16 14:21:38;;;;;;;5.63;1.50;;;5.40;99.90;;;;;;5058546;28;24786;-73
2023/01/16 14:24:24;;;;;;;2.33;0.90;;;5.40;99.90;;;;;;5040454;28;25054;-75
2023/01/16 14:27:01;;;;;;;2.08;0.95;;;5.50;99.90;;;;;;5058195;28;25056;-74
2023/01/16 14:29:48;;;;;;;3.08;1.17;;;5.50;99.90;;;;;;5058207;28;25083;-73
2023/01/16 14:32:19;;;;;;;3.97;1.35;;;5.60;99.90;;;;;;5058071;28;25089;-74
2023/01/16 14:35:22;;;;;;;5.15;1.58;;;5.60;99.90;;;;;;5057940;28;25130;-73
2023/01/16 14:38:06;;;;;;;6.55;2.17;;;5.60;99.90;;;;;;5040274;28;25049;-73
2023/01/16 14:55:48;;;;;;;5.18;1.60;;;5.30;99.90;;;;;;5057741;28;25058;-75
2023/01/16 14:58:33;;;;;;;14.52;4.32;;;5.30;99.90;;;;;;5057495;28;25058;-72
2023/01/16 15:03:48;;;;;;;2.22;0.93;;;5.00;99.90;;;;;;5057784;28;25061;-74
2023/01/16 15:06:16;;;;;;;11.48;4.45;;;5.00;99.90;;;;;;5057999;28;25051;-76